createdAt,value
2022-12-05T00:01:45.080Z,13.70
2022-12-05T00:07:28.009Z,12.67
2022-12-05T00:09:56.641Z,13.53
2022-12-05T00:12:37.100Z,13.50
2022-12-05T00:15:18.328Z,12.93
2022-12-05T00:17:52.466Z,13.03
2022-12-05T00:20:42.457Z,13.93
2022-12-05T00:23:17.548Z,13.90
2022-12-05T00:25:52.458Z,13.47
2022-12-05T00:28:20.661Z,13.37
2022-12-05T00:34:08.384Z,12.90
2022-12-05T00:36:49.011Z,13.60
2022-12-05T00:39:44.316Z,13.13
2022-12-05T00:42:20.262Z,12.93
2022-12-05T00:45:08.608Z,13.77
2022-12-05T00:47:40.918Z,13.95
2022-12-05T00:50:10.049Z,13.10
2022-12-05T00:53:08.374Z,13.07
2022-12-05T00:55:38.786Z,11.83
2022-12-05T00:58:12.778Z,12.33
2022-12-05T01:01:07.047Z,12.23
2022-12-05T01:03:36.683Z,12.70
2022-12-05T01:06:20.680Z,13.43
2022-12-05T01:09:04.325Z,11.90
2022-12-05T01:11:46.582Z,13.77
2022-12-05T01:14:26.201Z,12.20
2022-12-05T01:17:21.730Z,13.10
2022-12-05T01:19:53.825Z,12.23
2022-12-05T01:22:39.168Z,11.63
2022-12-05T01:25:12.607Z,13.47
2022-12-05T01:30:54.495Z,12.43
2022-12-05T01:33:29.797Z,13.27
2022-12-05T01:36:13.167Z,13.97
2022-12-05T01:39:09.960Z,12.30
2022-12-05T01:41:42.621Z,13.70
2022-12-05T01:44:46.441Z,13.43
2022-12-05T01:47:32.000Z,13.60
2022-12-05T01:50:14.514Z,13.47
2022-12-05T01:52:47.818Z,13.37
2022-12-05T01:55:33.419Z,13.25
2022-12-05T01:58:20.788Z,12.57
2022-12-05T02:00:58.783Z,12.70
2022-12-05T02:06:18.939Z,14.20
2022-12-05T02:08:49.895Z,14.00
2022-12-05T02:11:55.707Z,13.68
2022-12-05T02:14:36.056Z,12.37
2022-12-05T02:17:16.816Z,13.20
2022-12-05T02:20:09.334Z,13.43
2022-12-05T02:23:14.278Z,12.03
2022-12-05T02:26:08.106Z,13.30
2022-12-05T02:29:16.116Z,12.77
2022-12-05T02:32:13.660Z,13.77
2022-12-05T02:34:57.799Z,12.77
2022-12-05T02:37:55.570Z,13.37
2022-12-05T02:40:35.795Z,12.97
2022-12-05T02:43:15.130Z,13.82
2022-12-05T02:45:50.204Z,11.95
2022-12-05T02:48:36.264Z,12.67
2022-12-05T02:51:30.753Z,13.07
2022-12-05T02:54:25.086Z,12.57
2022-12-05T03:00:07.541Z,12.53
2022-12-05T03:02:42.700Z,11.27
2022-12-05T03:05:25.188Z,12.17
2022-12-05T03:08:06.550Z,13.07
2022-12-05T03:10:48.820Z,11.87
2022-12-05T03:13:28.545Z,11.30
2022-12-05T03:16:01.870Z,10.97
2022-12-05T03:19:05.835Z,11.55
2022-12-05T03:21:44.752Z,11.55
2022-12-05T03:24:20.417Z,10.67
2022-12-05T03:27:05.297Z,10.63
2022-12-05T03:29:46.663Z,9.70
2022-12-05T03:32:34.818Z,9.57
2022-12-05T03:35:16.007Z,11.00
2022-12-05T03:38:22.030Z,10.17
2022-12-05T03:41:09.337Z,9.07
2022-12-05T03:44:06.381Z,8.47
2022-12-05T03:47:02.665Z,8.50
2022-12-05T03:49:41.835Z,8.90
2022-12-05T03:52:23.596Z,8.20
2022-12-05T03:55:08.288Z,8.03
2022-12-05T03:58:07.513Z,8.00
2022-12-05T04:01:12.527Z,7.67
2022-12-05T04:03:45.861Z,7.43
2022-12-05T04:06:37.402Z,7.90
2022-12-05T04:09:17.104Z,7.73
2022-12-05T04:11:52.546Z,7.23
2022-12-05T04:14:28.821Z,6.80
2022-12-05T04:17:05.524Z,6.30
2022-12-05T04:19:59.566Z,6.67
2022-12-05T04:22:29.797Z,6.45
2022-12-05T04:25:23.514Z,5.90
2022-12-05T04:28:05.251Z,5.60
2022-12-05T04:30:56.044Z,5.50
2022-12-05T04:33:44.636Z,5.87
2022-12-05T04:36:24.932Z,5.17
2022-12-05T04:39:06.329Z,5.77
2022-12-05T04:41:47.045Z,5.90
2022-12-05T04:44:33.423Z,6.17
2022-12-05T04:47:18.032Z,5.85
2022-12-05T04:49:58.556Z,7.50
2022-12-05T04:52:38.167Z,6.35
2022-12-05T04:55:16.069Z,5.63
2022-12-05T04:58:00.017Z,4.88
2022-12-05T05:00:32.184Z,4.60
2022-12-05T05:03:14.090Z,4.88
2022-12-05T05:05:56.930Z,4.80
2022-12-05T05:08:33.036Z,5.20
2022-12-05T05:11:23.018Z,5.32
2022-12-05T05:13:57.303Z,5.80
2022-12-05T05:16:43.566Z,5.57
2022-12-05T05:19:24.396Z,5.13
2022-12-05T05:22:00.520Z,4.97
2022-12-05T05:24:38.157Z,5.15
2022-12-05T05:27:27.088Z,5.03
2022-12-05T05:30:12.032Z,5.30
2022-12-05T05:32:43.017Z,4.10
2022-12-05T05:35:11.810Z,4.57
2022-12-05T05:37:48.145Z,3.92
2022-12-05T05:40:19.264Z,4.03
2022-12-05T05:42:51.922Z,4.32
2022-12-05T05:45:26.794Z,4.30
2022-12-05T05:48:13.722Z,4.40
2022-12-05T05:50:44.345Z,4.97
2022-12-05T05:53:23.395Z,5.15
2022-12-05T05:55:56.130Z,5.68
2022-12-05T05:58:32.094Z,5.53
2022-12-05T06:01:07.406Z,4.80
2022-12-05T06:03:41.908Z,4.60
2022-12-05T06:06:18.775Z,4.35
2022-12-05T06:08:55.231Z,5.13
2022-12-05T06:11:26.947Z,4.53
2022-12-05T06:13:57.206Z,3.90
2022-12-05T06:16:26.672Z,4.00
2022-12-05T06:18:56.444Z,4.10
2022-12-05T06:21:25.678Z,3.78
2022-12-05T06:23:54.012Z,3.72
2022-12-05T06:26:23.687Z,3.70
2022-12-05T06:28:51.894Z,3.47
2022-12-05T06:31:22.672Z,3.33
2022-12-05T06:33:51.057Z,3.72
2022-12-05T06:36:23.905Z,3.03
2022-12-05T06:38:52.166Z,3.53
2022-12-05T06:41:21.763Z,3.47
2022-12-05T06:43:50.411Z,3.58
2022-12-05T06:46:19.572Z,3.45
2022-12-05T06:48:48.672Z,3.67
2022-12-05T06:51:19.977Z,3.53
2022-12-05T06:53:49.495Z,3.85
2022-12-05T06:56:20.692Z,3.70
2022-12-05T06:58:52.563Z,3.35
2022-12-05T07:01:41.535Z,8.70
2022-12-05T07:04:15.498Z,4.55
2022-12-05T07:06:50.452Z,4.80
2022-12-05T07:09:43.784Z,5.78
2022-12-05T07:12:12.821Z,5.05
2022-12-05T07:14:50.095Z,6.40
2022-12-05T07:17:21.576Z,5.38
2022-12-05T07:19:51.859Z,5.60
2022-12-05T07:22:23.573Z,4.38
2022-12-05T07:24:53.648Z,5.50
2022-12-05T07:27:27.584Z,4.43
2022-12-05T07:29:57.391Z,5.03
2022-12-05T07:32:26.523Z,3.58
2022-12-05T07:34:56.585Z,3.33
2022-12-05T07:37:26.331Z,3.20
2022-12-05T07:39:54.678Z,3.03
2022-12-05T07:42:22.988Z,3.28
2022-12-05T07:44:51.159Z,2.92
2022-12-05T07:47:19.578Z,6.90
2022-12-05T07:49:47.799Z,7.60
2022-12-05T07:52:18.855Z,6.30
2022-12-05T07:54:49.381Z,7.77
2022-12-05T07:57:17.588Z,5.97
2022-12-05T07:59:47.332Z,5.90
2022-12-05T08:02:15.999Z,7.63
2022-12-05T08:04:44.296Z,7.13
2022-12-05T08:07:12.814Z,3.77
2022-12-05T08:09:42.729Z,3.40
2022-12-05T08:12:13.322Z,3.80
2022-12-05T08:14:41.664Z,3.83
2022-12-05T08:17:10.713Z,4.27
2022-12-05T08:19:40.970Z,4.37
2022-12-05T08:22:09.177Z,4.93
2022-12-05T08:24:37.557Z,3.90
2022-12-05T08:27:06.262Z,4.03
2022-12-05T08:29:36.077Z,5.30
2022-12-05T08:32:06.494Z,4.68
2022-12-05T08:34:35.424Z,5.77
2022-12-05T08:37:05.098Z,6.30
2022-12-05T08:39:38.835Z,6.28
2022-12-05T08:42:09.716Z,5.10
2022-12-05T08:44:43.638Z,5.50
2022-12-05T08:47:12.375Z,4.90
2022-12-05T08:49:40.549Z,5.67
2022-12-05T08:52:08.750Z,4.97
2022-12-05T08:54:40.547Z,5.25
2022-12-05T08:57:09.025Z,4.28
2022-12-05T08:59:37.355Z,4.70
2022-12-05T09:02:06.893Z,5.32
2022-12-05T09:04:35.993Z,5.53
2022-12-05T09:07:04.739Z,7.53
2022-12-05T09:09:34.883Z,5.20
2022-12-05T09:12:03.353Z,4.50
2022-12-05T09:14:33.767Z,5.97
2022-12-05T09:17:02.366Z,4.82
2022-12-05T09:19:33.179Z,3.70
2022-12-05T09:22:03.402Z,3.67
2022-12-05T09:24:32.502Z,3.88
2022-12-05T09:27:01.520Z,3.22
2022-12-05T09:29:32.697Z,5.13
2022-12-05T09:32:01.226Z,4.57
2022-12-05T09:34:29.721Z,3.75
2022-12-05T09:37:16.703Z,3.47
2022-12-05T09:39:50.018Z,4.05
2022-12-05T09:42:36.879Z,4.60
2022-12-05T09:45:17.647Z,3.95
2022-12-05T09:47:59.082Z,4.00
2022-12-05T09:50:30.039Z,3.88
2022-12-05T09:53:12.442Z,4.47
2022-12-05T09:55:49.015Z,5.07
2022-12-05T09:58:26.217Z,3.67
2022-12-05T10:01:04.956Z,4.35
2022-12-05T10:03:43.267Z,3.63
2022-12-05T10:06:18.695Z,4.60
2022-12-05T10:09:14.440Z,4.40
2022-12-05T10:11:47.017Z,5.05
2022-12-05T10:14:25.658Z,4.85
2022-12-05T10:16:57.742Z,4.85
2022-12-05T10:19:32.250Z,4.53
2022-12-05T10:22:05.816Z,4.68
2022-12-05T10:24:41.645Z,5.15
2022-12-05T10:27:19.146Z,4.75
2022-12-05T10:29:54.994Z,4.78
2022-12-05T10:32:29.745Z,4.22
2022-12-05T10:35:08.266Z,4.75
2022-12-05T10:37:38.222Z,4.75
2022-12-05T10:40:13.551Z,5.38
2022-12-05T10:42:42.248Z,5.88
2022-12-05T10:45:17.428Z,5.72
2022-12-05T10:47:45.829Z,5.35
2022-12-05T10:50:24.210Z,5.40
2022-12-05T10:52:54.633Z,5.22
2022-12-05T10:55:27.150Z,4.95
2022-12-05T10:58:17.079Z,5.20
2022-12-05T11:00:49.195Z,4.88
2022-12-05T11:03:27.407Z,5.10
2022-12-05T11:05:58.451Z,4.93
2022-12-05T11:09:02.362Z,4.28
2022-12-05T11:11:23.921Z,4.70
2022-12-05T11:13:59.005Z,5.47
2022-12-05T11:16:31.521Z,5.72
2022-12-05T11:19:24.474Z,5.70
2022-12-05T11:21:53.731Z,5.15
2022-12-05T11:24:24.053Z,5.70
2022-12-05T11:26:56.060Z,5.95
2022-12-05T11:29:33.733Z,5.78
2022-12-05T11:32:03.867Z,5.60
2022-12-05T11:34:38.838Z,6.38
2022-12-05T11:37:14.022Z,7.53
2022-12-05T11:39:43.901Z,6.97
2022-12-05T11:42:33.553Z,6.75
2022-12-05T11:45:27.499Z,6.95
2022-12-05T11:48:25.328Z,5.90
2022-12-05T11:51:09.857Z,6.38
2022-12-05T11:54:04.878Z,6.28
2022-12-05T11:56:38.749Z,5.63
2022-12-05T11:59:32.201Z,6.50
2022-12-05T12:02:12.024Z,6.68
2022-12-05T12:04:49.875Z,6.32
2022-12-05T12:07:35.406Z,6.68
2022-12-05T12:10:19.198Z,5.40
2022-12-05T12:13:01.177Z,6.22
2022-12-05T12:16:03.804Z,5.70
2022-12-05T12:19:01.489Z,7.38
2022-12-05T12:21:40.918Z,6.20
2022-12-05T12:24:20.579Z,6.90
2022-12-05T12:27:01.477Z,7.38
2022-12-05T12:29:45.907Z,6.70
2022-12-05T12:32:30.459Z,7.72
2022-12-05T12:35:20.136Z,7.53
2022-12-05T12:38:01.155Z,7.77
2022-12-05T12:40:36.909Z,7.67
2022-12-05T12:43:44.852Z,8.73
2022-12-05T12:46:22.529Z,8.17
2022-12-05T12:49:10.989Z,7.87
2022-12-05T12:51:45.991Z,12.77
2022-12-05T12:55:01.705Z,8.97
2022-12-05T12:57:26.371Z,9.63
2022-12-05T13:00:04.872Z,11.30
2022-12-05T13:02:41.529Z,10.03
2022-12-05T13:05:24.350Z,10.13
2022-12-05T13:07:58.083Z,10.40
2022-12-05T13:10:36.582Z,10.73
2022-12-05T13:13:08.966Z,9.80
2022-12-05T13:15:41.063Z,10.67
2022-12-05T13:18:15.252Z,10.70
2022-12-05T13:20:47.755Z,10.63
2022-12-05T13:23:19.645Z,11.37
2022-12-05T13:25:49.650Z,10.70
2022-12-05T13:28:27.430Z,10.63
2022-12-05T13:31:03.846Z,11.37
2022-12-05T13:33:37.223Z,12.37
2022-12-05T13:36:29.622Z,12.70
2022-12-05T13:39:21.607Z,12.03
2022-12-05T13:42:10.594Z,12.27
2022-12-05T13:44:44.062Z,12.80
2022-12-05T13:47:28.593Z,13.40
2022-12-05T13:50:09.187Z,12.30
2022-12-05T13:52:46.627Z,11.90
2022-12-05T13:55:28.500Z,11.73
2022-12-05T13:58:00.087Z,11.17
2022-12-05T14:00:32.036Z,11.65
2022-12-05T14:03:16.419Z,11.10
2022-12-05T14:05:53.345Z,12.17
2022-12-05T14:08:58.328Z,12.00
2022-12-05T14:11:26.803Z,12.68
2022-12-05T14:14:03.785Z,12.93
2022-12-05T14:16:45.574Z,11.70
2022-12-05T14:19:55.503Z,12.00
2022-12-05T14:22:52.906Z,12.73
2022-12-05T14:25:58.334Z,11.90
2022-12-05T14:28:47.352Z,13.57
2022-12-05T14:31:47.002Z,13.63
2022-12-05T14:34:25.767Z,13.70
2022-12-05T14:37:00.385Z,13.77
2022-12-05T14:39:41.874Z,13.23
2022-12-05T14:42:30.864Z,14.90
2022-12-05T14:45:03.337Z,13.60
2022-12-05T14:47:34.312Z,13.97
2022-12-05T14:50:23.875Z,15.00
2022-12-05T14:53:16.929Z,14.60
2022-12-05T14:55:48.743Z,14.17
2022-12-05T14:58:22.881Z,13.80
2022-12-05T15:00:58.045Z,16.23
2022-12-05T15:03:31.313Z,15.47
2022-12-05T15:06:03.679Z,15.37
2022-12-05T15:08:41.489Z,14.82
2022-12-05T15:11:28.245Z,15.37
2022-12-05T15:14:05.052Z,14.93
2022-12-05T15:16:36.908Z,14.95
2022-12-05T15:19:13.042Z,15.03
2022-12-05T15:21:45.868Z,15.83
2022-12-05T15:24:17.306Z,17.37
2022-12-05T15:26:49.585Z,16.33
2022-12-05T15:29:28.353Z,17.55
2022-12-05T15:31:58.589Z,16.33
2022-12-05T15:34:32.147Z,16.10
2022-12-05T15:37:05.035Z,15.02
2022-12-05T15:39:55.875Z,16.27
2022-12-05T15:42:30.353Z,16.30
2022-12-05T15:45:21.041Z,15.93
2022-12-05T15:47:51.042Z,16.73
2022-12-05T15:50:31.612Z,16.40
2022-12-05T15:53:03.921Z,15.75
2022-12-05T15:55:39.209Z,14.85
2022-12-05T15:58:13.529Z,14.25
2022-12-05T16:00:49.309Z,15.53
2022-12-05T16:03:23.701Z,13.98
2022-12-05T16:05:56.784Z,13.50
2022-12-05T16:08:30.135Z,14.30
2022-12-05T16:11:07.564Z,13.53
2022-12-05T16:13:37.170Z,14.63
2022-12-05T16:16:07.464Z,14.07
2022-12-05T16:18:38.111Z,15.00
2022-12-05T16:21:34.426Z,14.02
2022-12-05T16:24:09.580Z,14.55
2022-12-05T16:26:40.929Z,14.48
2022-12-05T16:29:28.211Z,14.17
2022-12-05T16:31:59.819Z,14.70
2022-12-05T16:34:30.151Z,15.50
2022-12-05T16:36:58.690Z,15.25
2022-12-05T16:39:28.222Z,15.75
2022-12-05T16:42:00.788Z,14.80
2022-12-05T16:45:05.693Z,15.45
2022-12-05T16:48:00.391Z,14.50
2022-12-05T16:50:35.230Z,15.60
2022-12-05T16:53:05.985Z,14.43
2022-12-05T16:55:38.643Z,14.93
2022-12-05T16:58:10.329Z,15.48
2022-12-05T17:00:38.673Z,14.13
2022-12-05T17:03:33.599Z,14.05
2022-12-05T17:06:05.421Z,14.57
2022-12-05T17:08:34.302Z,15.87
2022-12-05T17:11:05.604Z,14.27
2022-12-05T17:13:35.147Z,14.83
2022-12-05T17:16:03.460Z,14.73
2022-12-05T17:18:35.116Z,14.70
2022-12-05T17:21:05.280Z,15.88
2022-12-05T17:23:33.564Z,15.13
2022-12-05T17:26:03.112Z,15.57
2022-12-05T17:28:33.351Z,15.35
2022-12-05T17:31:04.754Z,15.52
2022-12-05T17:33:35.864Z,16.60
2022-12-05T17:36:06.843Z,15.57
2022-12-05T17:38:35.353Z,15.73
2022-12-05T17:41:07.070Z,17.23
2022-12-05T17:43:35.904Z,16.63
2022-12-05T17:46:04.768Z,16.48
2022-12-05T17:48:34.655Z,15.85
2022-12-05T17:51:10.179Z,15.48
2022-12-05T17:53:39.085Z,15.77
2022-12-05T17:56:08.346Z,17.80
2022-12-05T17:58:37.332Z,15.37
2022-12-05T18:01:07.195Z,16.40
2022-12-05T18:03:36.849Z,16.20
2022-12-05T18:06:06.311Z,16.50
2022-12-05T18:08:39.575Z,16.48
2022-12-05T18:11:09.958Z,15.47
2022-12-05T18:13:38.470Z,16.57
2022-12-05T18:16:07.733Z,16.13
2022-12-05T18:18:40.672Z,16.07
2022-12-05T18:21:11.184Z,17.25
2022-12-05T18:23:41.348Z,15.45
2022-12-05T18:26:11.620Z,18.00
2022-12-05T18:28:40.957Z,16.77
2022-12-05T18:31:11.897Z,16.80
2022-12-05T18:33:41.605Z,16.15
2022-12-05T18:36:11.938Z,16.33
2022-12-05T18:38:40.731Z,16.37
2022-12-05T18:41:10.420Z,15.13
2022-12-05T18:43:40.118Z,15.13
2022-12-05T18:46:08.552Z,16.13
2022-12-05T18:48:40.771Z,16.15
2022-12-05T18:51:16.275Z,16.52
2022-12-05T18:53:51.719Z,16.93
2022-12-05T18:56:23.674Z,17.07
2022-12-05T18:58:57.004Z,16.65
2022-12-05T19:01:28.721Z,17.25
2022-12-05T19:03:58.158Z,17.63
2022-12-05T19:06:29.772Z,16.23
2022-12-05T19:08:59.364Z,15.48
2022-12-05T19:11:28.885Z,16.42
2022-12-05T19:13:57.658Z,15.43
2022-12-05T19:16:27.103Z,15.48
2022-12-05T19:18:57.103Z,16.23
2022-12-05T19:21:28.611Z,15.35
2022-12-05T19:23:57.256Z,15.20
2022-12-05T19:26:26.688Z,14.68
2022-12-05T19:28:55.099Z,14.48
2022-12-05T19:31:26.490Z,15.15
2022-12-05T19:33:56.210Z,14.02
2022-12-05T19:36:28.461Z,14.25
2022-12-05T19:38:58.686Z,13.88
2022-12-05T19:41:29.812Z,12.85
2022-12-05T19:44:00.876Z,13.15
2022-12-05T19:46:31.274Z,13.32
2022-12-05T19:49:02.679Z,13.43
2022-12-05T19:51:33.226Z,12.18
2022-12-05T19:54:05.589Z,12.40
2022-12-05T19:56:36.227Z,12.35
2022-12-05T19:59:07.014Z,11.95
2022-12-05T20:01:38.045Z,12.73
2022-12-05T20:04:10.769Z,13.18
2022-12-05T20:06:44.031Z,11.82
2022-12-05T20:09:14.062Z,12.48
2022-12-05T20:11:46.243Z,15.45
2022-12-05T20:14:19.938Z,24.90
2022-12-05T20:16:48.558Z,25.60
2022-12-05T20:19:16.965Z,23.42
2022-12-05T20:21:46.617Z,17.48
2022-12-05T20:24:14.907Z,12.68
2022-12-05T20:26:45.840Z,13.30
2022-12-05T20:29:15.278Z,11.48
2022-12-05T20:31:44.875Z,12.90
2022-12-05T20:34:15.174Z,11.98
2022-12-05T20:36:44.301Z,14.32
2022-12-05T20:39:17.148Z,13.75
2022-12-05T20:41:45.568Z,12.60
2022-12-05T20:44:18.194Z,13.20
2022-12-05T20:46:50.750Z,13.00
2022-12-05T20:49:21.113Z,12.50
2022-12-05T20:51:50.068Z,12.52
2022-12-05T20:54:21.323Z,13.35
2022-12-05T20:56:51.545Z,13.50
2022-12-05T20:59:21.619Z,13.85
2022-12-05T21:01:49.792Z,11.63
2022-12-05T21:04:18.084Z,12.77
2022-12-05T21:06:47.732Z,12.88
2022-12-05T21:09:26.194Z,12.95
2022-12-05T21:11:56.564Z,14.00
2022-12-05T21:14:28.057Z,13.65
2022-12-05T21:16:58.973Z,13.40
2022-12-05T21:19:28.049Z,13.57
2022-12-05T21:21:57.825Z,12.77
2022-12-05T21:24:26.277Z,13.15
2022-12-05T21:26:57.136Z,14.32
2022-12-05T21:29:25.918Z,13.35
2022-12-05T21:35:02.890Z,12.57
2022-12-05T21:37:33.883Z,12.48
2022-12-05T21:40:03.698Z,12.75
2022-12-05T21:42:33.529Z,12.10
2022-12-05T21:45:02.713Z,13.43
2022-12-05T21:47:31.019Z,12.68
2022-12-05T21:49:59.442Z,12.90
2022-12-05T21:52:27.749Z,12.48
2022-12-05T21:54:56.007Z,11.38
2022-12-05T21:57:24.229Z,11.55
2022-12-05T21:59:53.991Z,10.70
2022-12-05T22:02:22.200Z,10.43
2022-12-05T22:04:50.480Z,11.10
2022-12-05T22:07:18.925Z,10.13
2022-12-05T22:09:49.039Z,9.82
2022-12-05T22:12:17.317Z,9.98
2022-12-05T22:14:45.475Z,9.98
2022-12-05T22:17:15.712Z,10.48
2022-12-05T22:19:44.028Z,10.10
2022-12-05T22:22:12.385Z,10.65
2022-12-05T22:24:40.783Z,10.90
2022-12-05T22:27:09.366Z,10.35
2022-12-05T22:29:37.688Z,10.30
2022-12-05T22:32:06.153Z,10.80
2022-12-05T22:34:36.175Z,10.75
2022-12-05T22:37:05.333Z,10.70
2022-12-05T22:39:34.531Z,9.05
2022-12-05T22:42:02.773Z,9.40
2022-12-05T22:44:30.925Z,10.52
2022-12-05T22:46:59.401Z,9.23
2022-12-05T22:49:28.339Z,8.60
2022-12-05T22:51:58.491Z,8.75
2022-12-05T22:54:30.433Z,15.10
2022-12-05T22:56:58.793Z,22.17
2022-12-05T22:59:26.970Z,14.80
2022-12-05T23:01:55.176Z,10.90
2022-12-05T23:04:23.513Z,9.85
2022-12-05T23:06:52.956Z,9.93
2022-12-05T23:09:22.753Z,10.20
2022-12-05T23:11:51.491Z,8.77
2022-12-05T23:14:20.274Z,8.88
2022-12-05T23:16:48.513Z,9.57
2022-12-05T23:19:16.738Z,7.60
2022-12-05T23:21:45.237Z,7.43
2022-12-05T23:24:15.087Z,8.30
2022-12-05T23:26:47.000Z,7.82
2022-12-05T23:29:15.828Z,7.53
2022-12-05T23:31:45.849Z,7.78
2022-12-05T23:34:14.386Z,7.95
2022-12-05T23:36:43.136Z,7.88
2022-12-05T23:39:11.583Z,7.07
2022-12-05T23:41:40.213Z,8.52
2022-12-05T23:44:10.707Z,8.30
2022-12-05T23:46:39.301Z,8.80
2022-12-05T23:49:07.894Z,8.02
2022-12-05T23:51:40.225Z,7.82
2022-12-05T23:54:11.273Z,7.72
2022-12-05T23:56:40.173Z,7.90
2022-12-05T23:59:10.755Z,8.48
